sensor_id;sensor_type;location;lat;lon;timestamp;temperature;humidity
42261;DHT22;27926;48.062;7.474;2023-05-07T00:01:58;14.60;99.90
42261;DHT22;27926;48.062;7.474;2023-05-07T00:04:23;14.50;99.90
42261;DHT22;27926;48.062;7.474;2023-05-07T00:06:47;14.40;99.90
42261;DHT22;27926;48.062;7.474;2023-05-07T00:09:12;14.40;99.90
42261;DHT22;27926;48.062;7.474;2023-05-07T00:11:36;14.30;99.90
42261;DHT22;27926;48.062;7.474;2023-05-07T00:14:01;14.00;99.90
42261;DHT22;27926;48.062;7.474;2023-05-07T00:16:26;14.20;99.90
42261;DHT22;27926;48.062;7.474;2023-05-07T00:18:50;14.10;99.90
42261;DHT22;27926;48.062;7.474;2023-05-07T00:21:15;14.10;99.90
42261;DHT22;27926;48.062;7.474;2023-05-07T00:23:40;14.00;99.90
42261;DHT22;27926;48.062;7.474;2023-05-07T00:26:04;13.90;99.90
42261;DHT22;27926;48.062;7.474;2023-05-07T00:28:29;13.80;99.90
42261;DHT22;27926;48.062;7.474;2023-05-07T00:30:54;13.80;99.90
42261;DHT22;27926;48.062;7.474;2023-05-07T00:33:19;13.70;99.90
42261;DHT22;27926;48.062;7.474;2023-05-07T00:35:44;13.60;99.90
42261;DHT22;27926;48.062;7.474;2023-05-07T00:38:09;13.50;99.90
42261;DHT22;27926;48.062;7.474;2023-05-07T00:40:34;13.50;99.90
42261;DHT22;27926;48.062;7.474;2023-05-07T00:42:59;13.50;99.90
42261;DHT22;27926;48.062;7.474;2023-05-07T00:45:27;13.50;99.90
42261;DHT22;27926;48.062;7.474;2023-05-07T00:47:57;13.40;99.90
42261;DHT22;27926;48.062;7.474;2023-05-07T00:50:22;13.40;99.90
42261;DHT22;27926;48.062;7.474;2023-05-07T00:52:47;13.30;99.90
42261;DHT22;27926;48.062;7.474;2023-05-07T00:55:12;13.20;99.90
42261;DHT22;27926;48.062;7.474;2023-05-07T00:57:40;13.20;99.90
42261;DHT22;27926;48.062;7.474;2023-05-07T01:00:06;13.10;99.90
42261;DHT22;27926;48.062;7.474;2023-05-07T01:02:32;13.00;99.90
42261;DHT22;27926;48.062;7.474;2023-05-07T01:04:57;13.00;99.90
42261;DHT22;27926;48.062;7.474;2023-05-07T01:07:23;12.90;99.90
42261;DHT22;27926;48.062;7.474;2023-05-07T01:09:48;12.90;99.90
42261;DHT22;27926;48.062;7.474;2023-05-07T01:12:13;12.80;99.90
42261;DHT22;27926;48.062;7.474;2023-05-07T01:14:37;12.80;99.90
42261;DHT22;27926;48.062;7.474;2023-05-07T01:17:02;12.80;99.90
42261;DHT22;27926;48.062;7.474;2023-05-07T01:19:28;12.70;99.90
42261;DHT22;27926;48.062;7.474;2023-05-07T01:21:57;12.70;99.90
42261;DHT22;27926;48.062;7.474;2023-05-07T01:24:25;12.70;99.90
42261;DHT22;27926;48.062;7.474;2023-05-07T01:26:50;12.60;99.90
42261;DHT22;27926;48.062;7.474;2023-05-07T01:29:14;12.60;99.90
42261;DHT22;27926;48.062;7.474;2023-05-07T01:31:41;12.60;99.90
42261;DHT22;27926;48.062;7.474;2023-05-07T01:34:08;12.60;99.90
42261;DHT22;27926;48.062;7.474;2023-05-07T01:36:36;12.50;99.90
42261;DHT22;27926;48.062;7.474;2023-05-07T01:39:01;12.50;99.90
42261;DHT22;27926;48.062;7.474;2023-05-07T01:41:26;12.40;99.90
42261;DHT22;27926;48.062;7.474;2023-05-07T01:43:52;12.40;99.90
42261;DHT22;27926;48.062;7.474;2023-05-07T01:46:18;12.30;99.90
42261;DHT22;27926;48.062;7.474;2023-05-07T01:48:43;12.20;99.90
42261;DHT22;27926;48.062;7.474;2023-05-07T01:51:10;12.20;99.90
42261;DHT22;27926;48.062;7.474;2023-05-07T01:53:38;12.20;99.90
42261;DHT22;27926;48.062;7.474;2023-05-07T01:56:03;12.20;99.90
42261;DHT22;27926;48.062;7.474;2023-05-07T01:58:28;12.20;99.90
42261;DHT22;27926;48.062;7.474;2023-05-07T02:00:52;12.10;99.90
42261;DHT22;27926;48.062;7.474;2023-05-07T02:03:17;12.10;99.90
42261;DHT22;27926;48.062;7.474;2023-05-07T02:05:42;12.10;99.90
42261;DHT22;27926;48.062;7.474;2023-05-07T02:08:06;12.00;99.90
42261;DHT22;27926;48.062;7.474;2023-05-07T02:10:31;12.00;99.90
42261;DHT22;27926;48.062;7.474;2023-05-07T02:12:55;12.00;99.90
42261;DHT22;27926;48.062;7.474;2023-05-07T02:15:20;12.00;99.90
42261;DHT22;27926;48.062;7.474;2023-05-07T02:18:04;12.00;99.90
42261;DHT22;27926;48.062;7.474;2023-05-07T02:20:30;12.00;99.90
42261;DHT22;27926;48.062;7.474;2023-05-07T02:22:55;11.90;99.90
42261;DHT22;27926;48.062;7.474;2023-05-07T02:25:19;11.90;99.90
42261;DHT22;27926;48.062;7.474;2023-05-07T02:27:44;11.80;99.90
42261;DHT22;27926;48.062;7.474;2023-05-07T02:30:09;11.80;99.90
42261;DHT22;27926;48.062;7.474;2023-05-07T02:32:34;11.80;99.90
42261;DHT22;27926;48.062;7.474;2023-05-07T02:34:58;11.70;99.90
42261;DHT22;27926;48.062;7.474;2023-05-07T02:37:23;11.70;99.90
42261;DHT22;27926;48.062;7.474;2023-05-07T02:39:48;11.70;99.90
42261;DHT22;27926;48.062;7.474;2023-05-07T02:42:13;11.50;99.90
42261;DHT22;27926;48.062;7.474;2023-05-07T02:44:37;11.50;99.90
42261;DHT22;27926;48.062;7.474;2023-05-07T02:47:02;11.40;99.90
42261;DHT22;27926;48.062;7.474;2023-05-07T02:49:26;11.40;99.90
42261;DHT22;27926;48.062;7.474;2023-05-07T02:51:51;11.30;99.90
42261;DHT22;27926;48.062;7.474;2023-05-07T02:54:15;11.20;99.90
42261;DHT22;27926;48.062;7.474;2023-05-07T02:56:40;11.20;99.90
42261;DHT22;27926;48.062;7.474;2023-05-07T02:59:05;11.20;99.90
42261;DHT22;27926;48.062;7.474;2023-05-07T03:01:29;11.10;99.90
42261;DHT22;27926;48.062;7.474;2023-05-07T03:03:54;11.20;99.90
42261;DHT22;27926;48.062;7.474;2023-05-07T03:06:18;11.20;99.90
42261;DHT22;27926;48.062;7.474;2023-05-07T03:08:43;11.10;99.90
42261;DHT22;27926;48.062;7.474;2023-05-07T03:11:07;11.10;99.90
42261;DHT22;27926;48.062;7.474;2023-05-07T03:13:32;11.10;99.90
42261;DHT22;27926;48.062;7.474;2023-05-07T03:15:57;11.10;99.90
42261;DHT22;27926;48.062;7.474;2023-05-07T03:18:21;11.10;99.90
42261;DHT22;27926;48.062;7.474;2023-05-07T03:20:47;11.00;99.90
42261;DHT22;27926;48.062;7.474;2023-05-07T03:23:12;11.00;99.90
42261;DHT22;27926;48.062;7.474;2023-05-07T03:25:36;11.00;99.90
42261;DHT22;27926;48.062;7.474;2023-05-07T03:28:01;11.10;99.90
42261;DHT22;27926;48.062;7.474;2023-05-07T03:30:25;11.10;99.90
42261;DHT22;27926;48.062;7.474;2023-05-07T03:32:50;11.10;99.90
42261;DHT22;27926;48.062;7.474;2023-05-07T03:35:15;11.10;99.90
42261;DHT22;27926;48.062;7.474;2023-05-07T03:37:40;11.20;99.90
42261;DHT22;27926;48.062;7.474;2023-05-07T03:40:06;11.20;99.90
42261;DHT22;27926;48.062;7.474;2023-05-07T03:42:31;11.10;99.90
42261;DHT22;27926;48.062;7.474;2023-05-07T03:44:55;11.00;99.90
42261;DHT22;27926;48.062;7.474;2023-05-07T03:47:20;10.90;99.90
42261;DHT22;27926;48.062;7.474;2023-05-07T03:49:44;10.80;99.90
42261;DHT22;27926;48.062;7.474;2023-05-07T03:52:09;10.70;99.90
42261;DHT22;27926;48.062;7.474;2023-05-07T03:54:34;10.70;99.90
42261;DHT22;27926;48.062;7.474;2023-05-07T03:56:58;10.70;99.90
42261;DHT22;27926;48.062;7.474;2023-05-07T03:59:23;10.70;99.90
42261;DHT22;27926;48.062;7.474;2023-05-07T04:01:48;10.80;99.90
42261;DHT22;27926;48.062;7.474;2023-05-07T04:04:13;10.90;99.90
42261;DHT22;27926;48.062;7.474;2023-05-07T04:06:38;10.80;99.90
42261;DHT22;27926;48.062;7.474;2023-05-07T04:09:02;10.80;99.90
42261;DHT22;27926;48.062;7.474;2023-05-07T04:11:27;10.80;99.90
42261;DHT22;27926;48.062;7.474;2023-05-07T04:13:52;10.80;99.90
42261;DHT22;27926;48.062;7.474;2023-05-07T04:16:16;10.80;99.90
42261;DHT22;27926;48.062;7.474;2023-05-07T04:18:41;10.80;99.90
42261;DHT22;27926;48.062;7.474;2023-05-07T04:21:06;11.00;99.90
42261;DHT22;27926;48.062;7.474;2023-05-07T04:23:37;11.00;99.90
42261;DHT22;27926;48.062;7.474;2023-05-07T04:26:02;11.00;99.90
42261;DHT22;27926;48.062;7.474;2023-05-07T04:28:27;11.10;99.90
42261;DHT22;27926;48.062;7.474;2023-05-07T04:30:52;11.10;99.90
42261;DHT22;27926;48.062;7.474;2023-05-07T04:33:16;11.30;99.90
42261;DHT22;27926;48.062;7.474;2023-05-07T04:35:41;11.40;99.90
42261;DHT22;27926;48.062;7.474;2023-05-07T04:38:06;11.60;99.90
42261;DHT22;27926;48.062;7.474;2023-05-07T04:40:30;11.80;99.90
42261;DHT22;27926;48.062;7.474;2023-05-07T04:42:55;12.00;99.90
42261;DHT22;27926;48.062;7.474;2023-05-07T04:45:20;12.00;99.90
42261;DHT22;27926;48.062;7.474;2023-05-07T04:47:44;12.20;99.90
42261;DHT22;27926;48.062;7.474;2023-05-07T04:50:09;12.70;99.90
42261;DHT22;27926;48.062;7.474;2023-05-07T04:52:34;13.20;99.90
42261;DHT22;27926;48.062;7.474;2023-05-07T04:55:00;13.90;99.90
42261;DHT22;27926;48.062;7.474;2023-05-07T04:57:25;14.40;99.90
42261;DHT22;27926;48.062;7.474;2023-05-07T04:59:50;15.10;99.90
42261;DHT22;27926;48.062;7.474;2023-05-07T05:02:15;15.70;99.90
42261;DHT22;27926;48.062;7.474;2023-05-07T05:04:40;15.80;99.90
42261;DHT22;27926;48.062;7.474;2023-05-07T05:07:05;15.60;99.90
42261;DHT22;27926;48.062;7.474;2023-05-07T05:09:30;15.40;99.90
42261;DHT22;27926;48.062;7.474;2023-05-07T05:11:54;15.10;99.90
42261;DHT22;27926;48.062;7.474;2023-05-07T05:14:19;14.90;99.90
42261;DHT22;27926;48.062;7.474;2023-05-07T05:16:44;14.70;99.90
42261;DHT22;27926;48.062;7.474;2023-05-07T05:19:08;14.50;99.90
42261;DHT22;27926;48.062;7.474;2023-05-07T05:21:33;14.40;99.90
42261;DHT22;27926;48.062;7.474;2023-05-07T05:23:58;14.30;99.90
42261;DHT22;27926;48.062;7.474;2023-05-07T05:26:22;14.20;99.90
42261;DHT22;27926;48.062;7.474;2023-05-07T05:28:47;14.10;99.90
42261;DHT22;27926;48.062;7.474;2023-05-07T05:31:11;14.10;99.90
42261;DHT22;27926;48.062;7.474;2023-05-07T05:33:36;14.10;99.90
42261;DHT22;27926;48.062;7.474;2023-05-07T05:36:01;14.10;99.90
42261;DHT22;27926;48.062;7.474;2023-05-07T05:38:25;14.00;99.90
42261;DHT22;27926;48.062;7.474;2023-05-07T05:40:51;14.20;99.90
42261;DHT22;27926;48.062;7.474;2023-05-07T05:43:16;14.30;99.90
42261;DHT22;27926;48.062;7.474;2023-05-07T05:45:40;14.30;99.90
42261;DHT22;27926;48.062;7.474;2023-05-07T05:48:05;14.50;99.90
42261;DHT22;27926;48.062;7.474;2023-05-07T05:50:30;14.50;99.90
42261;DHT22;27926;48.062;7.474;2023-05-07T05:52:55;14.60;99.90
42261;DHT22;27926;48.062;7.474;2023-05-07T05:55:19;14.60;99.90
42261;DHT22;27926;48.062;7.474;2023-05-07T05:57:44;14.70;99.90
42261;DHT22;27926;48.062;7.474;2023-05-07T06:00:09;14.70;99.90
42261;DHT22;27926;48.062;7.474;2023-05-07T06:02:34;14.70;99.90
42261;DHT22;27926;48.062;7.474;2023-05-07T06:04:58;14.70;99.90
42261;DHT22;27926;48.062;7.474;2023-05-07T06:07:23;14.80;99.90
42261;DHT22;27926;48.062;7.474;2023-05-07T06:09:48;14.90;99.90
42261;DHT22;27926;48.062;7.474;2023-05-07T06:12:12;15.10;99.90
42261;DHT22;27926;48.062;7.474;2023-05-07T06:14:37;15.30;99.90
42261;DHT22;27926;48.062;7.474;2023-05-07T06:17:01;15.40;99.90
42261;DHT22;27926;48.062;7.474;2023-05-07T06:19:26;15.60;99.90
42261;DHT22;27926;48.062;7.474;2023-05-07T06:21:52;15.90;99.90
42261;DHT22;27926;48.062;7.474;2023-05-07T06:24:16;16.40;99.90
42261;DHT22;27926;48.062;7.474;2023-05-07T06:26:41;16.80;99.90
42261;DHT22;27926;48.062;7.474;2023-05-07T06:29:06;17.20;99.90
42261;DHT22;27926;48.062;7.474;2023-05-07T06:31:31;17.50;99.90
42261;DHT22;27926;48.062;7.474;2023-05-07T06:33:56;17.60;99.90
42261;DHT22;27926;48.062;7.474;2023-05-07T06:36:21;17.60;99.90
42261;DHT22;27926;48.062;7.474;2023-05-07T06:38:45;17.60;99.90
42261;DHT22;27926;48.062;7.474;2023-05-07T06:41:10;17.70;99.90
42261;DHT22;27926;48.062;7.474;2023-05-07T06:43:35;17.80;99.90
42261;DHT22;27926;48.062;7.474;2023-05-07T06:46:00;18.10;99.90
42261;DHT22;27926;48.062;7.474;2023-05-07T06:48:24;18.60;99.90
42261;DHT22;27926;48.062;7.474;2023-05-07T06:50:49;19.20;99.90
42261;DHT22;27926;48.062;7.474;2023-05-07T06:53:14;20.00;99.90
42261;DHT22;27926;48.062;7.474;2023-05-07T06:55:38;20.80;99.90
42261;DHT22;27926;48.062;7.474;2023-05-07T06:58:03;21.40;99.90
42261;DHT22;27926;48.062;7.474;2023-05-07T07:00:31;21.60;99.90
42261;DHT22;27926;48.062;7.474;2023-05-07T07:02:56;21.30;99.90
42261;DHT22;27926;48.062;7.474;2023-05-07T07:05:20;21.20;99.90
42261;DHT22;27926;48.062;7.474;2023-05-07T07:07:45;21.00;99.90
42261;DHT22;27926;48.062;7.474;2023-05-07T07:10:16;20.90;99.90
42261;DHT22;27926;48.062;7.474;2023-05-07T07:12:41;21.00;99.90
42261;DHT22;27926;48.062;7.474;2023-05-07T07:15:06;21.20;99.90
42261;DHT22;27926;48.062;7.474;2023-05-07T07:17:31;21.30;99.90
42261;DHT22;27926;48.062;7.474;2023-05-07T07:19:55;21.50;99.90
42261;DHT22;27926;48.062;7.474;2023-05-07T07:22:20;21.60;99.90
42261;DHT22;27926;48.062;7.474;2023-05-07T07:24:44;21.60;99.90
42261;DHT22;27926;48.062;7.474;2023-05-07T07:27:09;21.60;99.90
42261;DHT22;27926;48.062;7.474;2023-05-07T07:29:33;21.70;99.90
42261;DHT22;27926;48.062;7.474;2023-05-07T07:31:58;21.80;99.90
42261;DHT22;27926;48.062;7.474;2023-05-07T07:34:23;21.90;99.90
42261;DHT22;27926;48.062;7.474;2023-05-07T07:36:47;21.80;99.90
42261;DHT22;27926;48.062;7.474;2023-05-07T07:39:12;21.80;99.90
42261;DHT22;27926;48.062;7.474;2023-05-07T07:41:37;22.00;99.90
42261;DHT22;27926;48.062;7.474;2023-05-07T07:44:03;22.00;99.90
42261;DHT22;27926;48.062;7.474;2023-05-07T07:46:28;22.10;99.90
42261;DHT22;27926;48.062;7.474;2023-05-07T07:48:52;22.10;99.90
42261;DHT22;27926;48.062;7.474;2023-05-07T07:51:18;22.10;99.90
42261;DHT22;27926;48.062;7.474;2023-05-07T07:53:42;22.20;99.90
42261;DHT22;27926;48.062;7.474;2023-05-07T07:56:07;22.30;99.90
42261;DHT22;27926;48.062;7.474;2023-05-07T07:58:32;22.60;99.90
42261;DHT22;27926;48.062;7.474;2023-05-07T08:00:58;22.80;99.90
42261;DHT22;27926;48.062;7.474;2023-05-07T08:03:23;22.80;99.00
42261;DHT22;27926;48.062;7.474;2023-05-07T08:05:47;22.80;99.80
42261;DHT22;27926;48.062;7.474;2023-05-07T08:08:14;22.80;99.40
42261;DHT22;27926;48.062;7.474;2023-05-07T08:10:38;22.60;99.00
42261;DHT22;27926;48.062;7.474;2023-05-07T08:13:03;22.70;99.90
42261;DHT22;27926;48.062;7.474;2023-05-07T08:15:28;22.80;99.90
42261;DHT22;27926;48.062;7.474;2023-05-07T08:17:53;22.80;99.90
42261;DHT22;27926;48.062;7.474;2023-05-07T08:20:17;22.90;99.50
42261;DHT22;27926;48.062;7.474;2023-05-07T08:22:42;22.70;99.90
42261;DHT22;27926;48.062;7.474;2023-05-07T08:25:07;22.70;99.80
42261;DHT22;27926;48.062;7.474;2023-05-07T08:27:32;22.80;99.90
42261;DHT22;27926;48.062;7.474;2023-05-07T08:29:56;22.90;99.90
42261;DHT22;27926;48.062;7.474;2023-05-07T08:32:21;23.10;99.90
42261;DHT22;27926;48.062;7.474;2023-05-07T08:34:45;23.00;99.90
42261;DHT22;27926;48.062;7.474;2023-05-07T08:37:12;23.10;99.90
42261;DHT22;27926;48.062;7.474;2023-05-07T08:39:37;23.40;99.70
42261;DHT22;27926;48.062;7.474;2023-05-07T08:42:04;23.60;99.40
42261;DHT22;27926;48.062;7.474;2023-05-07T08:44:34;23.80;99.30
42261;DHT22;27926;48.062;7.474;2023-05-07T08:47:01;23.60;99.60
42261;DHT22;27926;48.062;7.474;2023-05-07T08:49:27;23.20;99.90
42261;DHT22;27926;48.062;7.474;2023-05-07T08:51:52;22.80;99.90
42261;DHT22;27926;48.062;7.474;2023-05-07T08:54:17;22.70;99.90
42261;DHT22;27926;48.062;7.474;2023-05-07T08:56:42;22.70;99.60
42261;DHT22;27926;48.062;7.474;2023-05-07T08:59:07;22.70;99.50
42261;DHT22;27926;48.062;7.474;2023-05-07T09:01:31;22.70;99.90
42261;DHT22;27926;48.062;7.474;2023-05-07T09:03:57;22.60;99.70
42261;DHT22;27926;48.062;7.474;2023-05-07T09:06:21;22.70;99.90
42261;DHT22;27926;48.062;7.474;2023-05-07T09:08:51;22.70;99.90
42261;DHT22;27926;48.062;7.474;2023-05-07T09:11:16;22.70;99.90
42261;DHT22;27926;48.062;7.474;2023-05-07T09:13:43;22.50;99.90
42261;DHT22;27926;48.062;7.474;2023-05-07T09:16:11;22.40;99.90
42261;DHT22;27926;48.062;7.474;2023-05-07T09:18:43;22.20;99.90
42261;DHT22;27926;48.062;7.474;2023-05-07T09:21:15;22.20;99.90
42261;DHT22;27926;48.062;7.474;2023-05-07T09:23:40;22.40;99.90
42261;DHT22;27926;48.062;7.474;2023-05-07T09:26:06;22.50;99.90
42261;DHT22;27926;48.062;7.474;2023-05-07T09:28:38;22.60;99.90
42261;DHT22;27926;48.062;7.474;2023-05-07T09:31:04;22.70;99.90
42261;DHT22;27926;48.062;7.474;2023-05-07T09:33:29;22.80;99.90
42261;DHT22;27926;48.062;7.474;2023-05-07T09:35:54;22.60;99.90
42261;DHT22;27926;48.062;7.474;2023-05-07T09:38:20;22.30;99.90
42261;DHT22;27926;48.062;7.474;2023-05-07T09:40:45;22.30;99.90
42261;DHT22;27926;48.062;7.474;2023-05-07T09:43:11;22.30;99.90
42261;DHT22;27926;48.062;7.474;2023-05-07T09:45:35;22.20;99.90
42261;DHT22;27926;48.062;7.474;2023-05-07T09:48:01;22.20;99.90
42261;DHT22;27926;48.062;7.474;2023-05-07T09:50:32;22.20;99.90
42261;DHT22;27926;48.062;7.474;2023-05-07T09:53:00;22.30;99.90
42261;DHT22;27926;48.062;7.474;2023-05-07T09:55:25;22.20;99.90
42261;DHT22;27926;48.062;7.474;2023-05-07T09:57:51;22.00;99.90
42261;DHT22;27926;48.062;7.474;2023-05-07T10:00:22;21.90;99.90
42261;DHT22;27926;48.062;7.474;2023-05-07T10:02:49;21.70;99.90
42261;DHT22;27926;48.062;7.474;2023-05-07T10:05:14;21.70;99.90
42261;DHT22;27926;48.062;7.474;2023-05-07T10:07:39;21.50;99.90
42261;DHT22;27926;48.062;7.474;2023-05-07T10:10:05;21.40;99.90
42261;DHT22;27926;48.062;7.474;2023-05-07T10:12:30;21.20;99.90
42261;DHT22;27926;48.062;7.474;2023-05-07T10:15:01;21.00;99.90
42261;DHT22;27926;48.062;7.474;2023-05-07T10:17:26;21.00;99.90
42261;DHT22;27926;48.062;7.474;2023-05-07T10:19:53;21.00;99.90
42261;DHT22;27926;48.062;7.474;2023-05-07T10:22:18;20.90;99.90
42261;DHT22;27926;48.062;7.474;2023-05-07T10:24:44;20.50;99.90
42261;DHT22;27926;48.062;7.474;2023-05-07T10:27:12;20.30;99.90
42261;DHT22;27926;48.062;7.474;2023-05-07T10:32:45;20.20;99.90
42261;DHT22;27926;48.062;7.474;2023-05-07T10:35:17;20.20;99.90
42261;DHT22;27926;48.062;7.474;2023-05-07T10:37:44;20.20;99.90
42261;DHT22;27926;48.062;7.474;2023-05-07T10:40:10;20.20;99.90
42261;DHT22;27926;48.062;7.474;2023-05-07T10:42:34;20.10;99.90
42261;DHT22;27926;48.062;7.474;2023-05-07T10:45:14;19.90;99.90
42261;DHT22;27926;48.062;7.474;2023-05-07T10:48:09;19.70;99.90
42261;DHT22;27926;48.062;7.474;2023-05-07T10:50:35;19.50;99.90
42261;DHT22;27926;48.062;7.474;2023-05-07T10:55:47;18.80;99.90
42261;DHT22;27926;48.062;7.474;2023-05-07T10:58:26;18.40;99.90
42261;DHT22;27926;48.062;7.474;2023-05-07T11:00:59;18.10;99.90
42261;DHT22;27926;48.062;7.474;2023-05-07T11:03:25;17.90;99.90
42261;DHT22;27926;48.062;7.474;2023-05-07T11:06:09;17.80;99.90
42261;DHT22;27926;48.062;7.474;2023-05-07T11:08:56;17.80;99.90
42261;DHT22;27926;48.062;7.474;2023-05-07T11:14:11;17.80;99.90
42261;DHT22;27926;48.062;7.474;2023-05-07T11:16:36;18.00;99.90
42261;DHT22;27926;48.062;7.474;2023-05-07T11:19:02;18.10;99.90
42261;DHT22;27926;48.062;7.474;2023-05-07T11:21:39;18.30;99.90
42261;DHT22;27926;48.062;7.474;2023-05-07T11:24:09;18.50;99.90
42261;DHT22;27926;48.062;7.474;2023-05-07T11:26:49;18.70;99.90
42261;DHT22;27926;48.062;7.474;2023-05-07T11:31:39;19.10;99.90
42261;DHT22;27926;48.062;7.474;2023-05-07T11:34:04;19.30;99.90
42261;DHT22;27926;48.062;7.474;2023-05-07T11:36:32;19.40;99.90
42261;DHT22;27926;48.062;7.474;2023-05-07T11:38:56;19.50;99.90
42261;DHT22;27926;48.062;7.474;2023-05-07T11:41:21;19.50;99.90
42261;DHT22;27926;48.062;7.474;2023-05-07T11:43:55;19.60;99.90
42261;DHT22;27926;48.062;7.474;2023-05-07T11:46:20;19.60;99.90
42261;DHT22;27926;48.062;7.474;2023-05-07T11:48:45;19.50;99.90
42261;DHT22;27926;48.062;7.474;2023-05-07T11:51:09;19.30;99.90
42261;DHT22;27926;48.062;7.474;2023-05-07T11:53:38;19.20;99.90
42261;DHT22;27926;48.062;7.474;2023-05-07T11:56:11;19.20;99.90
42261;DHT22;27926;48.062;7.474;2023-05-07T11:58:36;19.20;99.90
42261;DHT22;27926;48.062;7.474;2023-05-07T12:01:00;19.20;99.90
42261;DHT22;27926;48.062;7.474;2023-05-07T12:03:25;19.30;99.90
42261;DHT22;27926;48.062;7.474;2023-05-07T12:05:50;19.40;99.90
42261;DHT22;27926;48.062;7.474;2023-05-07T12:08:18;19.50;99.90
42261;DHT22;27926;48.062;7.474;2023-05-07T12:10:44;19.70;99.90
42261;DHT22;27926;48.062;7.474;2023-05-07T12:13:20;19.80;99.90
42261;DHT22;27926;48.062;7.474;2023-05-07T12:15:44;19.90;99.90
42261;DHT22;27926;48.062;7.474;2023-05-07T12:18:11;19.90;99.90
42261;DHT22;27926;48.062;7.474;2023-05-07T12:20:36;20.00;99.90
42261;DHT22;27926;48.062;7.474;2023-05-07T12:23:02;20.10;99.90
42261;DHT22;27926;48.062;7.474;2023-05-07T12:25:26;20.00;99.90
42261;DHT22;27926;48.062;7.474;2023-05-07T12:27:54;20.00;99.90
42261;DHT22;27926;48.062;7.474;2023-05-07T12:30:19;20.10;99.90
42261;DHT22;27926;48.062;7.474;2023-05-07T12:32:45;20.20;99.90
42261;DHT22;27926;48.062;7.474;2023-05-07T12:35:09;20.20;99.90
42261;DHT22;27926;48.062;7.474;2023-05-07T12:37:35;20.40;99.90
42261;DHT22;27926;48.062;7.474;2023-05-07T12:40:07;20.40;99.90
42261;DHT22;27926;48.062;7.474;2023-05-07T12:42:40;20.50;99.90
42261;DHT22;27926;48.062;7.474;2023-05-07T12:45:20;20.50;99.90
42261;DHT22;27926;48.062;7.474;2023-05-07T12:47:46;20.60;99.90
42261;DHT22;27926;48.062;7.474;2023-05-07T12:50:11;20.60;99.90
42261;DHT22;27926;48.062;7.474;2023-05-07T12:52:36;20.50;99.90
42261;DHT22;27926;48.062;7.474;2023-05-07T12:55:05;20.50;99.90
42261;DHT22;27926;48.062;7.474;2023-05-07T12:57:31;20.30;99.90
42261;DHT22;27926;48.062;7.474;2023-05-07T13:00:01;20.30;99.90
42261;DHT22;27926;48.062;7.474;2023-05-07T13:02:40;20.10;99.90
42261;DHT22;27926;48.062;7.474;2023-05-07T13:05:05;20.00;99.90
42261;DHT22;27926;48.062;7.474;2023-05-07T13:07:29;20.00;99.90
42261;DHT22;27926;48.062;7.474;2023-05-07T13:09:54;20.00;99.90
42261;DHT22;27926;48.062;7.474;2023-05-07T13:12:19;20.00;99.90
42261;DHT22;27926;48.062;7.474;2023-05-07T13:14:43;19.90;99.90
42261;DHT22;27926;48.062;7.474;2023-05-07T13:17:08;19.90;99.90
42261;DHT22;27926;48.062;7.474;2023-05-07T13:19:32;19.90;99.90
42261;DHT22;27926;48.062;7.474;2023-05-07T13:21:57;20.00;99.90
42261;DHT22;27926;48.062;7.474;2023-05-07T13:24:21;20.20;99.90
42261;DHT22;27926;48.062;7.474;2023-05-07T13:26:46;20.20;99.90
42261;DHT22;27926;48.062;7.474;2023-05-07T13:29:10;20.50;99.90
42261;DHT22;27926;48.062;7.474;2023-05-07T13:31:35;20.60;99.90
42261;DHT22;27926;48.062;7.474;2023-05-07T13:34:00;20.80;99.90
42261;DHT22;27926;48.062;7.474;2023-05-07T13:36:24;21.00;99.90
42261;DHT22;27926;48.062;7.474;2023-05-07T13:38:50;21.00;99.90
42261;DHT22;27926;48.062;7.474;2023-05-07T13:41:15;21.20;99.90
42261;DHT22;27926;48.062;7.474;2023-05-07T13:43:40;21.20;99.90
42261;DHT22;27926;48.062;7.474;2023-05-07T13:46:05;21.20;99.90
42261;DHT22;27926;48.062;7.474;2023-05-07T13:48:29;21.20;99.90
42261;DHT22;27926;48.062;7.474;2023-05-07T13:50:54;21.20;99.90
42261;DHT22;27926;48.062;7.474;2023-05-07T13:53:18;21.10;99.90
42261;DHT22;27926;48.062;7.474;2023-05-07T13:55:44;20.90;99.90
42261;DHT22;27926;48.062;7.474;2023-05-07T13:58:08;20.70;99.90
42261;DHT22;27926;48.062;7.474;2023-05-07T14:00:33;20.60;99.90
42261;DHT22;27926;48.062;7.474;2023-05-07T14:02:57;20.40;99.90
42261;DHT22;27926;48.062;7.474;2023-05-07T14:05:23;20.30;99.90
42261;DHT22;27926;48.062;7.474;2023-05-07T14:07:47;20.00;99.90
42261;DHT22;27926;48.062;7.474;2023-05-07T14:10:13;20.00;99.90
42261;DHT22;27926;48.062;7.474;2023-05-07T14:12:38;20.00;99.90
42261;DHT22;27926;48.062;7.474;2023-05-07T14:15:03;20.10;99.90
42261;DHT22;27926;48.062;7.474;2023-05-07T14:17:28;20.20;99.90
42261;DHT22;27926;48.062;7.474;2023-05-07T14:19:53;20.20;99.90
42261;DHT22;27926;48.062;7.474;2023-05-07T14:22:23;20.20;99.90
42261;DHT22;27926;48.062;7.474;2023-05-07T14:24:48;20.20;99.90
42261;DHT22;27926;48.062;7.474;2023-05-07T14:27:12;20.20;99.90
42261;DHT22;27926;48.062;7.474;2023-05-07T14:29:37;20.30;99.90
42261;DHT22;27926;48.062;7.474;2023-05-07T14:32:02;20.50;99.90
42261;DHT22;27926;48.062;7.474;2023-05-07T14:34:27;20.60;99.90
42261;DHT22;27926;48.062;7.474;2023-05-07T14:36:52;20.80;99.90
42261;DHT22;27926;48.062;7.474;2023-05-07T14:39:16;20.90;99.90
42261;DHT22;27926;48.062;7.474;2023-05-07T14:41:41;21.10;99.90
42261;DHT22;27926;48.062;7.474;2023-05-07T14:44:05;21.40;99.90
42261;DHT22;27926;48.062;7.474;2023-05-07T14:46:30;21.60;99.90
42261;DHT22;27926;48.062;7.474;2023-05-07T14:48:54;21.70;99.90
42261;DHT22;27926;48.062;7.474;2023-05-07T14:51:20;21.70;99.90
42261;DHT22;27926;48.062;7.474;2023-05-07T14:53:45;21.60;99.90
42261;DHT22;27926;48.062;7.474;2023-05-07T14:56:12;21.60;99.90
42261;DHT22;27926;48.062;7.474;2023-05-07T14:58:37;21.60;99.90
42261;DHT22;27926;48.062;7.474;2023-05-07T15:01:02;21.50;99.90
42261;DHT22;27926;48.062;7.474;2023-05-07T15:03:27;21.30;99.90
42261;DHT22;27926;48.062;7.474;2023-05-07T15:05:51;21.10;99.90
42261;DHT22;27926;48.062;7.474;2023-05-07T15:08:16;20.90;99.90
42261;DHT22;27926;48.062;7.474;2023-05-07T15:10:41;20.90;99.90
42261;DHT22;27926;48.062;7.474;2023-05-07T15:13:06;21.00;99.90
42261;DHT22;27926;48.062;7.474;2023-05-07T15:15:31;21.00;99.90
42261;DHT22;27926;48.062;7.474;2023-05-07T15:17:56;21.00;99.90
42261;DHT22;27926;48.062;7.474;2023-05-07T15:20:21;21.00;99.90
42261;DHT22;27926;48.062;7.474;2023-05-07T15:22:45;21.10;99.90
42261;DHT22;27926;48.062;7.474;2023-05-07T15:25:10;21.10;99.90
42261;DHT22;27926;48.062;7.474;2023-05-07T15:27:34;21.10;99.90
42261;DHT22;27926;48.062;7.474;2023-05-07T15:29:59;21.00;99.90
42261;DHT22;27926;48.062;7.474;2023-05-07T15:32:24;21.00;99.90